createdAt,value
2017-01-01T00:00:31.934Z,0
2017-01-01T00:01:12.394Z,0
2017-01-01T00:01:52.860Z,0
2017-01-01T00:02:33.378Z,0
2017-01-01T00:03:13.857Z,0
2017-01-01T00:03:54.324Z,0
2017-01-01T00:04:34.781Z,0
2017-01-01T00:05:15.253Z,0
2017-01-01T00:05:55.734Z,0
2017-01-01T00:06:36.192Z,0
2017-01-01T00:07:16.671Z,0
2017-01-01T00:07:57.270Z,0
2017-01-01T00:08:37.747Z,0
2017-01-01T00:09:18.244Z,0
2017-01-01T00:09:58.714Z,0
2017-01-01T00:10:39.170Z,0
2017-01-01T00:11:19.696Z,0
2017-01-01T00:12:00.138Z,0
2017-01-01T00:12:40.638Z,0
2017-01-01T00:13:21.142Z,0
2017-01-01T00:14:01.612Z,0
2017-01-01T00:14:42.107Z,0
2017-01-01T00:15:22.575Z,0
2017-01-01T00:16:03.060Z,0
2017-01-01T00:16:43.527Z,0
2017-01-01T00:17:24.019Z,0
2017-01-01T00:18:04.494Z,0
2017-01-01T00:18:44.973Z,0
2017-01-01T00:19:25.453Z,0
2017-01-01T00:20:05.934Z,0
2017-01-01T00:20:46.408Z,0
2017-01-01T00:21:26.916Z,0
2017-01-01T00:22:07.383Z,0
2017-01-01T00:22:47.879Z,0
2017-01-01T00:23:28.370Z,0
2017-01-01T00:24:08.815Z,0
2017-01-01T00:24:49.283Z,0
2017-01-01T00:25:29.773Z,0
2017-01-01T00:26:10.232Z,0
2017-01-01T00:26:50.708Z,0
2017-01-01T00:27:31.180Z,0
2017-01-01T00:28:11.667Z,0
2017-01-01T00:28:52.121Z,0
2017-01-01T00:29:32.598Z,0
2017-01-01T00:30:13.059Z,0
2017-01-01T00:30:53.534Z,0
2017-01-01T00:31:34.017Z,0
2017-01-01T00:32:14.524Z,0
2017-01-01T00:32:54.996Z,0
2017-01-01T00:33:35.493Z,0
2017-01-01T00:34:15.955Z,0
2017-01-01T00:34:56.425Z,0
2017-01-01T00:35:36.937Z,0
2017-01-01T00:36:17.391Z,0
2017-01-01T00:36:57.907Z,0
2017-01-01T00:37:38.392Z,0
2017-01-01T00:38:18.864Z,0
2017-01-01T00:38:59.348Z,0
2017-01-01T00:39:39.884Z,0
2017-01-01T00:40:20.334Z,0
2017-01-01T00:41:00.804Z,0
2017-01-01T00:41:41.295Z,0
2017-01-01T00:42:21.756Z,0
2017-01-01T00:43:02.229Z,0
2017-01-01T00:43:42.686Z,0
2017-01-01T00:44:23.144Z,0
2017-01-01T00:45:03.617Z,0
2017-01-01T00:45:44.116Z,0
2017-01-01T00:46:24.593Z,0
2017-01-01T00:47:05.064Z,0
2017-01-01T00:47:45.548Z,0
2017-01-01T00:48:26.020Z,0
2017-01-01T00:49:06.514Z,0
2017-01-01T00:49:47.013Z,0
2017-01-01T00:50:27.475Z,0
2017-01-01T00:51:07.930Z,0
2017-01-01T00:51:48.426Z,0
2017-01-01T00:52:28.911Z,0
2017-01-01T00:53:09.394Z,0
2017-01-01T00:53:49.887Z,0
2017-01-01T00:54:30.372Z,0
2017-01-01T00:55:10.863Z,0
2017-01-01T00:55:51.375Z,0
2017-01-01T00:56:31.818Z,0
2017-01-01T00:57:12.297Z,0
2017-01-01T00:57:52.749Z,0
2017-01-01T00:58:33.240Z,0
2017-01-01T00:59:13.697Z,0
2017-01-01T00:59:54.161Z,0
2017-01-01T01:00:34.643Z,0
2017-01-01T01:01:15.120Z,0
2017-01-01T01:01:55.596Z,0
2017-01-01T01:02:36.077Z,0
2017-01-01T01:03:16.547Z,0
2017-01-01T01:03:57.010Z,0
2017-01-01T01:04:37.498Z,0
2017-01-01T01:05:17.980Z,0
2017-01-01T01:05:58.426Z,0
2017-01-01T01:06:38.907Z,0
2017-01-01T01:07:19.392Z,0
2017-01-01T01:07:59.862Z,0
2017-01-01T01:08:40.338Z,0
2017-01-01T01:09:20.804Z,0
2017-01-01T01:10:01.306Z,0
2017-01-01T01:10:41.814Z,0
2017-01-01T01:11:22.249Z,0
2017-01-01T01:12:02.732Z,0
2017-01-01T01:12:43.200Z,0
2017-01-01T01:13:23.690Z,0
2017-01-01T01:14:04.175Z,0
2017-01-01T01:14:44.629Z,0
2017-01-01T01:15:25.154Z,0
2017-01-01T01:16:05.631Z,0
2017-01-01T01:16:46.114Z,0
2017-01-01T01:17:26.564Z,0
2017-01-01T01:18:07.031Z,0
2017-01-01T01:18:47.528Z,0
2017-01-01T01:19:27.991Z,0
2017-01-01T01:20:08.481Z,0
2017-01-01T01:20:48.968Z,0
2017-01-01T01:21:29.450Z,0
2017-01-01T01:22:09.942Z,0
2017-01-01T01:22:50.421Z,0
2017-01-01T01:23:30.897Z,0
2017-01-01T01:24:11.356Z,0
2017-01-01T01:24:51.832Z,0
2017-01-01T01:25:32.329Z,0
2017-01-01T01:26:12.768Z,0
2017-01-01T01:26:53.255Z,0
2017-01-01T01:27:33.724Z,0
2017-01-01T01:28:14.188Z,0
2017-01-01T01:28:54.664Z,0
2017-01-01T01:29:35.148Z,0
2017-01-01T01:30:15.633Z,0
2017-01-01T01:30:56.102Z,0
2017-01-01T01:31:36.591Z,0
2017-01-01T01:32:17.042Z,0
2017-01-01T01:32:57.525Z,0
2017-01-01T01:33:38.003Z,0
2017-01-01T01:34:18.480Z,0
2017-01-01T01:34:58.957Z,0
2017-01-01T01:35:39.421Z,0
2017-01-01T01:36:19.898Z,0
2017-01-01T01:37:00.390Z,0
2017-01-01T01:37:40.847Z,0
2017-01-01T01:38:21.304Z,0
2017-01-01T01:39:01.783Z,0
2017-01-01T01:39:42.255Z,0
2017-01-01T01:40:22.700Z,0
2017-01-01T01:41:03.172Z,0
2017-01-01T01:41:43.619Z,0
2017-01-01T01:42:24.070Z,0
2017-01-01T01:43:04.561Z,0
2017-01-01T01:43:45.101Z,0
2017-01-01T01:44:25.557Z,0
2017-01-01T01:45:06.016Z,0
2017-01-01T01:45:46.488Z,0
2017-01-01T01:46:26.995Z,0
2017-01-01T01:47:07.452Z,0
2017-01-01T01:47:47.933Z,0
2017-01-01T01:48:28.375Z,0
2017-01-01T01:49:08.843Z,0
2017-01-01T01:49:49.330Z,0
2017-01-01T01:50:29.798Z,0
2017-01-01T01:51:10.294Z,0
2017-01-01T01:51:50.752Z,0
2017-01-01T01:52:31.236Z,0
2017-01-01T01:53:11.690Z,0
2017-01-01T01:53:52.206Z,0
2017-01-01T01:54:32.666Z,0
2017-01-01T01:55:13.182Z,0
2017-01-01T01:55:53.630Z,0
2017-01-01T01:56:34.140Z,0
2017-01-01T01:57:14.612Z,0
2017-01-01T01:57:55.071Z,0
2017-01-01T01:58:35.529Z,0
2017-01-01T01:59:15.992Z,0
2017-01-01T01:59:56.505Z,0
2017-01-01T02:00:37.003Z,0
2017-01-01T02:01:17.475Z,0
2017-01-01T02:01:57.928Z,0
2017-01-01T02:02:38.405Z,0
2017-01-01T02:03:18.894Z,0
2017-01-01T02:03:59.393Z,0
2017-01-01T02:04:39.858Z,0
2017-01-01T02:05:20.344Z,0
2017-01-01T02:06:00.834Z,0
2017-01-01T02:06:41.309Z,0
2017-01-01T02:07:21.773Z,0
2017-01-01T02:08:02.249Z,0
2017-01-01T02:08:42.704Z,0
2017-01-01T02:09:23.193Z,0
2017-01-01T02:10:03.696Z,0
2017-01-01T02:10:44.180Z,0
2017-01-01T02:11:24.636Z,0
2017-01-01T02:12:05.134Z,0
2017-01-01T02:12:45.612Z,0
2017-01-01T02:13:26.082Z,0
2017-01-01T02:14:06.552Z,0
2017-01-01T02:14:47.001Z,0
2017-01-01T02:15:27.477Z,0
2017-01-01T02:16:07.920Z,0
2017-01-01T02:16:48.403Z,0
2017-01-01T02:17:28.874Z,0
2017-01-01T02:18:09.340Z,0
2017-01-01T02:18:49.855Z,0
2017-01-01T02:19:30.313Z,0
2017-01-01T02:20:10.791Z,0
2017-01-01T02:20:51.265Z,0
2017-01-01T02:21:31.772Z,0
2017-01-01T02:22:12.256Z,0
2017-01-01T02:22:52.698Z,0
2017-01-01T02:23:33.203Z,0
2017-01-01T02:24:13.671Z,0
2017-01-01T02:24:54.125Z,0
2017-01-01T02:25:34.608Z,0
2017-01-01T02:26:15.130Z,0
2017-01-01T02:26:55.613Z,0
2017-01-01T02:27:36.095Z,0
2017-01-01T02:28:16.547Z,0
2017-01-01T02:28:57.039Z,0
2017-01-01T02:29:37.501Z,0
2017-01-01T02:30:18.003Z,0
2017-01-01T02:30:58.492Z,0
2017-01-01T02:31:38.990Z,0
2017-01-01T02:32:19.431Z,0
2017-01-01T02:32:59.908Z,0
2017-01-01T02:33:40.403Z,0
2017-01-01T02:34:20.905Z,0
2017-01-01T02:35:01.408Z,0
2017-01-01T02:35:41.894Z,0
2017-01-01T02:36:22.420Z,0
2017-01-01T02:37:02.911Z,0
2017-01-01T02:37:43.418Z,0
2017-01-01T02:38:23.901Z,0
2017-01-01T02:39:04.403Z,0
2017-01-01T02:39:44.890Z,0
2017-01-01T02:40:25.402Z,0
2017-01-01T02:41:05.879Z,0
2017-01-01T02:41:46.372Z,0
2017-01-01T02:42:26.841Z,0
2017-01-01T02:43:07.348Z,0
2017-01-01T02:43:47.832Z,0
2017-01-01T02:44:28.314Z,0
2017-01-01T02:45:08.815Z,0
2017-01-01T02:45:49.288Z,0
2017-01-01T02:46:29.765Z,0
2017-01-01T02:47:10.244Z,0
2017-01-01T02:47:50.745Z,0
2017-01-01T02:48:31.216Z,0
2017-01-01T02:49:11.671Z,0
2017-01-01T02:49:52.142Z,0
2017-01-01T02:50:32.652Z,0
2017-01-01T02:51:13.166Z,0
2017-01-01T02:51:53.615Z,0
2017-01-01T02:52:34.106Z,0
2017-01-01T02:53:14.597Z,0
2017-01-01T02:53:55.060Z,0
2017-01-01T02:54:35.536Z,0
2017-01-01T02:55:16.029Z,0
2017-01-01T02:55:56.529Z,0
2017-01-01T02:56:36.999Z,0
2017-01-01T02:57:17.508Z,0
2017-01-01T02:57:57.968Z,0
2017-01-01T02:58:38.479Z,0
2017-01-01T02:59:18.953Z,0
2017-01-01T02:59:59.426Z,0
2017-01-01T03:00:39.933Z,0
2017-01-01T03:01:20.394Z,0
2017-01-01T03:02:00.887Z,0
2017-01-01T03:02:41.366Z,0
2017-01-01T03:03:21.850Z,0
2017-01-01T03:04:02.316Z,0
2017-01-01T03:04:42.772Z,0
2017-01-01T03:05:23.245Z,0
2017-01-01T03:06:03.748Z,0
2017-01-01T03:06:44.229Z,0
2017-01-01T03:07:24.751Z,0
2017-01-01T03:08:05.220Z,0
2017-01-01T03:08:45.709Z,0
2017-01-01T03:09:26.198Z,0
2017-01-01T03:10:06.675Z,0
2017-01-01T03:10:47.168Z,0
2017-01-01T03:11:27.645Z,0
2017-01-01T03:12:08.108Z,0
2017-01-01T03:12:48.608Z,0
2017-01-01T03:13:29.115Z,0
2017-01-01T03:14:09.556Z,0
2017-01-01T03:14:50.044Z,0
2017-01-01T03:15:30.507Z,0
2017-01-01T03:16:11.010Z,0
2017-01-01T03:16:51.485Z,0
2017-01-01T03:17:32.102Z,0
2017-01-01T03:18:12.648Z,0
2017-01-01T03:18:53.129Z,0
2017-01-01T03:19:33.616Z,0
2017-01-01T03:20:14.108Z,0
2017-01-01T03:20:54.605Z,0
2017-01-01T03:21:35.087Z,0
2017-01-01T03:22:15.567Z,0
2017-01-01T03:22:56.032Z,0
2017-01-01T03:23:36.535Z,0
2017-01-01T03:24:17.024Z,0
2017-01-01T03:24:57.497Z,0
2017-01-01T03:25:37.961Z,0
2017-01-01T03:26:18.501Z,0
2017-01-01T03:26:58.959Z,0
2017-01-01T03:27:39.471Z,0
2017-01-01T03:28:19.957Z,0
2017-01-01T03:29:00.436Z,0
2017-01-01T03:29:40.936Z,0
2017-01-01T03:30:21.435Z,0
2017-01-01T03:31:01.920Z,0
2017-01-01T03:31:42.426Z,0
2017-01-01T03:32:22.906Z,0
2017-01-01T03:33:03.393Z,0
2017-01-01T03:33:43.848Z,0
2017-01-01T03:34:24.339Z,0
2017-01-01T03:35:04.823Z,0
2017-01-01T03:35:45.375Z,0
2017-01-01T03:36:25.872Z,0
2017-01-01T03:37:06.361Z,0
2017-01-01T03:37:46.858Z,0
2017-01-01T03:38:27.346Z,0
2017-01-01T03:39:07.836Z,0
2017-01-01T03:39:48.337Z,0
2017-01-01T03:40:28.821Z,0
2017-01-01T03:41:09.332Z,0
2017-01-01T03:41:49.801Z,0
2017-01-01T03:42:30.290Z,0
2017-01-01T03:43:10.781Z,0
2017-01-01T03:43:51.277Z,0
2017-01-01T03:44:31.767Z,0
2017-01-01T03:45:12.247Z,0
2017-01-01T03:45:52.715Z,0
2017-01-01T03:46:33.198Z,0
2017-01-01T03:47:13.661Z,0
2017-01-01T03:47:54.168Z,0
2017-01-01T03:48:34.652Z,0
2017-01-01T03:49:15.146Z,0
2017-01-01T03:49:55.638Z,0
2017-01-01T03:50:36.157Z,0
2017-01-01T03:51:16.654Z,0
2017-01-01T03:51:57.156Z,0
2017-01-01T03:52:37.645Z,0
2017-01-01T03:53:18.128Z,0
2017-01-01T03:53:58.583Z,0
2017-01-01T03:54:39.094Z,0
2017-01-01T03:55:19.581Z,0
2017-01-01T03:56:00.036Z,0
2017-01-01T03:56:40.508Z,0
2017-01-01T03:57:21.025Z,0
2017-01-01T03:58:01.526Z,0
2017-01-01T03:58:41.992Z,0
2017-01-01T03:59:22.485Z,0
2017-01-01T04:00:02.959Z,0
2017-01-01T04:00:43.425Z,0
2017-01-01T04:01:23.926Z,0
2017-01-01T04:02:04.401Z,0
2017-01-01T04:02:44.874Z,0
2017-01-01T04:03:25.367Z,0
2017-01-01T04:04:05.823Z,0
2017-01-01T04:04:46.329Z,0
2017-01-01T04:05:26.817Z,0
2017-01-01T04:06:07.296Z,0
2017-01-01T04:06:47.768Z,0
2017-01-01T04:07:28.240Z,0
2017-01-01T04:08:08.733Z,0
2017-01-01T04:08:49.198Z,0
2017-01-01T04:09:29.692Z,0
2017-01-01T04:10:10.166Z,0
2017-01-01T04:10:50.635Z,0
2017-01-01T04:11:31.145Z,0
2017-01-01T04:12:11.614Z,0
2017-01-01T04:12:52.107Z,0
2017-01-01T04:13:32.584Z,0
2017-01-01T04:14:13.061Z,0
2017-01-01T04:14:53.534Z,0
2017-01-01T04:15:33.994Z,0
2017-01-01T04:16:14.489Z,0
2017-01-01T04:16:54.949Z,0
2017-01-01T04:17:35.420Z,0
2017-01-01T04:18:15.918Z,0
2017-01-01T04:18:56.394Z,0
2017-01-01T04:19:36.886Z,0
2017-01-01T04:20:17.364Z,0
2017-01-01T04:20:57.874Z,0
2017-01-01T04:21:38.361Z,0
2017-01-01T04:22:18.839Z,0
2017-01-01T04:22:59.336Z,0
2017-01-01T04:23:39.789Z,0
2017-01-01T04:24:20.262Z,0
2017-01-01T04:25:00.742Z,0
2017-01-01T04:25:41.230Z,0
2017-01-01T04:26:21.718Z,0
2017-01-01T04:27:02.189Z,0
2017-01-01T04:27:42.652Z,0
2017-01-01T04:28:23.145Z,0
2017-01-01T04:29:03.619Z,0
2017-01-01T04:29:44.138Z,0
2017-01-01T04:30:24.605Z,0
2017-01-01T04:31:05.092Z,0
2017-01-01T04:31:45.589Z,0
2017-01-01T04:32:26.080Z,0
2017-01-01T04:33:06.571Z,0
2017-01-01T04:33:47.068Z,0
2017-01-01T04:34:27.527Z,0
2017-01-01T04:35:08.033Z,0
2017-01-01T04:35:48.518Z,0
2017-01-01T04:36:29.023Z,0
2017-01-01T04:37:09.494Z,0
2017-01-01T04:37:50.036Z,0
2017-01-01T04:38:30.503Z,0
2017-01-01T04:39:10.980Z,0
2017-01-01T04:39:51.468Z,0
2017-01-01T04:40:31.966Z,0
2017-01-01T04:41:12.491Z,0
2017-01-01T04:41:52.932Z,0
2017-01-01T04:42:33.408Z,0
2017-01-01T04:43:13.869Z,0
2017-01-01T04:43:54.359Z,0
2017-01-01T04:44:34.840Z,0
2017-01-01T04:45:15.355Z,0
2017-01-01T04:45:55.858Z,0
2017-01-01T04:46:36.378Z,0
2017-01-01T04:47:16.850Z,0
2017-01-01T04:47:57.343Z,0
2017-01-01T04:48:37.804Z,0
2017-01-01T04:49:18.311Z,0
2017-01-01T04:49:58.794Z,0
2017-01-01T04:50:39.299Z,0
2017-01-01T04:51:19.760Z,0
2017-01-01T04:52:00.309Z,0
2017-01-01T04:52:40.801Z,0
2017-01-01T04:53:21.291Z,0
2017-01-01T04:54:01.759Z,0
2017-01-01T04:54:42.273Z,0
2017-01-01T04:55:22.750Z,0
2017-01-01T04:56:03.234Z,0
2017-01-01T04:56:43.721Z,0
2017-01-01T04:57:24.195Z,0
2017-01-01T04:58:04.688Z,0
2017-01-01T04:58:45.167Z,0
2017-01-01T04:59:25.639Z,0
2017-01-01T05:00:06.131Z,0
2017-01-01T05:00:46.613Z,0
2017-01-01T05:01:27.132Z,0
2017-01-01T05:02:07.614Z,0
2017-01-01T05:02:48.093Z,0
2017-01-01T05:03:28.594Z,0
2017-01-01T05:04:09.054Z,0
2017-01-01T05:04:49.539Z,0
2017-01-01T05:05:30.039Z,0
2017-01-01T05:06:10.539Z,0
2017-01-01T05:06:51.012Z,0
2017-01-01T05:07:31.507Z,0
2017-01-01T05:08:11.995Z,0
2017-01-01T05:08:52.479Z,0
2017-01-01T05:09:32.969Z,0
2017-01-01T05:10:13.445Z,0
2017-01-01T05:10:53.935Z,0
2017-01-01T05:11:34.410Z,0
2017-01-01T05:12:14.900Z,0
2017-01-01T05:12:55.402Z,0
2017-01-01T05:13:35.895Z,0
2017-01-01T05:14:16.359Z,0
2017-01-01T05:14:56.843Z,0
2017-01-01T05:15:37.366Z,0
2017-01-01T05:16:17.857Z,0
2017-01-01T05:16:58.346Z,0
2017-01-01T05:17:38.857Z,0
2017-01-01T05:18:19.348Z,0
2017-01-01T05:18:59.858Z,0
2017-01-01T05:19:40.344Z,0
2017-01-01T05:20:20.813Z,0
2017-01-01T05:22:49.399Z,0
2017-01-01T05:23:29.900Z,0
2017-01-01T05:24:10.410Z,0
2017-01-01T05:24:50.892Z,0
2017-01-01T05:25:31.380Z,0
2017-01-01T05:26:11.855Z,0
2017-01-01T05:26:52.333Z,0
2017-01-01T05:27:32.819Z,0
2017-01-01T05:28:13.304Z,0
2017-01-01T05:28:53.748Z,0
2017-01-01T05:29:34.243Z,0
2017-01-01T05:30:14.739Z,0
2017-01-01T05:30:55.255Z,0
2017-01-01T05:31:35.724Z,0
2017-01-01T05:32:16.208Z,0
2017-01-01T05:32:56.693Z,0
2017-01-01T05:33:37.145Z,0
2017-01-01T05:34:17.651Z,0
2017-01-01T05:34:58.115Z,0
2017-01-01T05:35:38.572Z,0
2017-01-01T05:36:19.079Z,0
2017-01-01T05:36:59.568Z,0
2017-01-01T05:37:40.079Z,0
2017-01-01T05:38:20.555Z,0
2017-01-01T05:39:01.027Z,0
2017-01-01T05:39:41.515Z,0
2017-01-01T05:40:22.017Z,0
2017-01-01T05:41:02.497Z,0
2017-01-01T05:41:42.986Z,0
2017-01-01T05:42:23.465Z,0
2017-01-01T05:43:03.943Z,0
2017-01-01T05:43:44.435Z,0
2017-01-01T05:44:24.932Z,0
2017-01-01T05:45:05.397Z,0
2017-01-01T05:45:45.875Z,0
2017-01-01T05:46:26.359Z,0
2017-01-01T05:47:06.830Z,0
2017-01-01T05:47:47.331Z,0
2017-01-01T05:48:27.821Z,0
2017-01-01T05:49:08.333Z,0
2017-01-01T05:49:48.806Z,0
2017-01-01T05:50:29.311Z,0
2017-01-01T05:51:09.810Z,0
2017-01-01T05:51:50.291Z,0
2017-01-01T05:52:30.790Z,0
2017-01-01T05:53:11.280Z,0
2017-01-01T05:53:51.772Z,0
2017-01-01T05:54:32.284Z,0
2017-01-01T05:55:12.759Z,0
2017-01-01T05:55:53.267Z,0
2017-01-01T05:56:33.766Z,0
2017-01-01T05:57:14.246Z,0
2017-01-01T05:57:54.722Z,0
2017-01-01T05:58:35.216Z,0
2017-01-01T05:59:15.716Z,0
2017-01-01T05:59:56.213Z,0
2017-01-01T06:00:36.695Z,0
2017-01-01T06:01:17.179Z,0
2017-01-01T06:01:57.738Z,0
2017-01-01T06:02:38.236Z,0
2017-01-01T06:03:18.732Z,0
2017-01-01T06:03:59.208Z,0
2017-01-01T06:04:39.690Z,0
2017-01-01T06:05:20.225Z,0
2017-01-01T06:06:00.749Z,0
2017-01-01T06:06:41.216Z,0
2017-01-01T06:07:21.710Z,0
2017-01-01T06:08:02.185Z,0
2017-01-01T06:08:42.680Z,0
2017-01-01T06:09:23.171Z,0
2017-01-01T06:10:03.658Z,0
2017-01-01T06:10:44.157Z,0
2017-01-01T06:11:24.630Z,0
2017-01-01T06:12:05.170Z,0
2017-01-01T06:12:45.627Z,0
2017-01-01T06:13:26.124Z,0
2017-01-01T06:14:06.610Z,0
2017-01-01T06:14:47.080Z,0
2017-01-01T06:15:27.565Z,0
2017-01-01T06:16:08.049Z,0
2017-01-01T06:16:48.534Z,0
2017-01-01T06:17:29.018Z,0
2017-01-01T06:18:09.510Z,0
2017-01-01T06:18:49.972Z,0
2017-01-01T06:19:30.434Z,0
2017-01-01T06:20:10.929Z,0
2017-01-01T06:20:51.413Z,0
2017-01-01T06:21:31.928Z,0
2017-01-01T06:22:12.409Z,0
2017-01-01T06:22:52.890Z,0
2017-01-01T06:23:33.389Z,0
2017-01-01T06:24:13.868Z,0
2017-01-01T06:24:54.344Z,0
2017-01-01T06:25:34.819Z,0
2017-01-01T06:26:15.313Z,0
2017-01-01T06:26:55.787Z,0
2017-01-01T06:27:36.266Z,0
2017-01-01T06:28:16.751Z,0
2017-01-01T06:28:57.229Z,0
2017-01-01T06:29:37.720Z,0
2017-01-01T06:30:18.193Z,0
2017-01-01T06:30:58.684Z,0
2017-01-01T06:31:39.153Z,0
2017-01-01T06:32:19.631Z,0
2017-01-01T06:33:00.096Z,0
2017-01-01T06:33:40.550Z,0
2017-01-01T06:34:21.045Z,0
2017-01-01T06:35:01.515Z,0
2017-01-01T06:35:42.042Z,0
2017-01-01T06:36:22.517Z,0
2017-01-01T06:37:03.002Z,0
2017-01-01T06:37:43.518Z,0
2017-01-01T06:38:23.984Z,0
2017-01-01T06:39:04.483Z,0
2017-01-01T06:39:44.952Z,0
2017-01-01T06:40:25.438Z,0
2017-01-01T06:41:05.928Z,0
2017-01-01T06:41:46.393Z,0
2017-01-01T06:42:26.876Z,0
2017-01-01T06:43:07.379Z,0
2017-01-01T06:43:47.851Z,0
2017-01-01T06:44:28.334Z,0
2017-01-01T06:45:08.783Z,0
2017-01-01T06:45:49.293Z,0
2017-01-01T06:46:29.769Z,0
2017-01-01T06:47:10.250Z,0
2017-01-01T06:47:50.743Z,0
2017-01-01T06:48:31.211Z,0
2017-01-01T06:49:11.658Z,0
2017-01-01T06:49:52.150Z,0
2017-01-01T06:50:32.653Z,0
2017-01-01T06:51:13.147Z,0
2017-01-01T06:51:53.610Z,0
2017-01-01T06:52:34.095Z,0
2017-01-01T06:53:14.573Z,0
2017-01-01T06:53:55.040Z,0
2017-01-01T06:54:35.520Z,0
2017-01-01T06:55:15.979Z,0
2017-01-01T06:55:56.472Z,0
2017-01-01T06:56:36.971Z,0
2017-01-01T06:57:17.459Z,0
2017-01-01T06:57:57.943Z,0
2017-01-01T06:58:38.424Z,0
2017-01-01T06:59:18.912Z,0
2017-01-01T06:59:59.388Z,0
2017-01-01T07:00:39.860Z,0
2017-01-01T07:01:20.362Z,0
2017-01-01T07:03:48.754Z,0
2017-01-01T07:04:29.290Z,0
2017-01-01T07:05:09.750Z,0
2017-01-01T07:05:50.260Z,0
2017-01-01T07:06:30.737Z,0
2017-01-01T07:07:11.229Z,0
2017-01-01T07:07:51.690Z,0
2017-01-01T07:08:32.182Z,0
2017-01-01T07:09:12.636Z,0
2017-01-01T07:09:53.126Z,0
2017-01-01T07:10:33.605Z,0
2017-01-01T07:11:14.083Z,0
2017-01-01T07:11:54.530Z,0
2017-01-01T07:12:35.042Z,0
2017-01-01T07:13:15.518Z,0
2017-01-01T07:13:55.971Z,0
2017-01-01T07:14:36.451Z,0
2017-01-01T07:15:16.916Z,0
2017-01-01T07:15:57.421Z,0
2017-01-01T07:16:37.906Z,0
2017-01-01T07:17:18.386Z,0
2017-01-01T07:17:58.848Z,0
2017-01-01T07:18:39.345Z,0
2017-01-01T07:19:19.795Z,0
2017-01-01T07:20:00.254Z,0
2017-01-01T07:20:40.737Z,0
2017-01-01T07:21:21.248Z,0
2017-01-01T07:22:01.722Z,0
2017-01-01T07:22:42.178Z,0
2017-01-01T07:23:22.685Z,0
2017-01-01T07:24:03.145Z,0
2017-01-01T07:24:43.610Z,0
2017-01-01T07:25:24.076Z,0
2017-01-01T07:26:04.563Z,0
2017-01-01T07:26:45.065Z,0
2017-01-01T07:27:25.551Z,0
2017-01-01T07:28:06.033Z,0
2017-01-01T07:28:46.534Z,0
2017-01-01T07:29:27.006Z,0
2017-01-01T07:30:07.486Z,0
2017-01-01T07:30:47.980Z,0
2017-01-01T07:31:28.459Z,0
2017-01-01T07:32:08.940Z,0
2017-01-01T07:32:49.454Z,0
2017-01-01T07:33:29.914Z,0
2017-01-01T07:34:10.404Z,0
2017-01-01T07:34:50.892Z,0
2017-01-01T07:35:31.396Z,0
2017-01-01T07:36:11.903Z,0
2017-01-01T07:36:52.365Z,0
2017-01-01T07:37:32.856Z,0
2017-01-01T07:38:13.332Z,0
2017-01-01T07:38:53.821Z,0
2017-01-01T07:39:34.327Z,0
2017-01-01T07:40:14.838Z,0
2017-01-01T07:40:55.309Z,0
2017-01-01T07:41:35.772Z,0
2017-01-01T07:42:16.248Z,0
2017-01-01T07:42:56.745Z,0
2017-01-01T07:43:37.224Z,0
2017-01-01T07:44:17.741Z,0
2017-01-01T07:44:58.223Z,0
2017-01-01T07:45:38.710Z,0
2017-01-01T07:46:19.176Z,0
2017-01-01T07:46:59.675Z,0
2017-01-01T07:47:40.174Z,0
2017-01-01T07:48:20.646Z,0
2017-01-01T07:49:01.130Z,0
2017-01-01T07:49:41.610Z,0
2017-01-01T07:50:22.113Z,0
2017-01-01T07:51:02.586Z,0
2017-01-01T07:51:43.077Z,0
2017-01-01T07:52:23.537Z,0
2017-01-01T07:53:04.019Z,0
2017-01-01T07:53:44.509Z,0
2017-01-01T07:54:24.991Z,0
2017-01-01T07:55:05.475Z,0
2017-01-01T07:55:45.962Z,0
2017-01-01T07:56:26.467Z,0
2017-01-01T07:57:06.953Z,5
2017-01-01T07:57:47.436Z,5
2017-01-01T07:58:27.918Z,5
2017-01-01T07:59:08.423Z,5
2017-01-01T07:59:48.876Z,5
2017-01-01T08:00:29.378Z,5
2017-01-01T08:01:09.854Z,5
2017-01-01T08:01:50.388Z,5
2017-01-01T08:02:30.882Z,5
2017-01-01T08:03:11.381Z,5
2017-01-01T08:03:51.858Z,5
2017-01-01T08:04:32.335Z,5
2017-01-01T08:05:12.798Z,5
2017-01-01T08:05:53.275Z,5
2017-01-01T08:06:33.761Z,5
2017-01-01T08:07:14.256Z,5
2017-01-01T08:07:54.737Z,5
2017-01-01T08:08:35.215Z,5
2017-01-01T08:09:15.703Z,5
2017-01-01T08:09:56.182Z,5
2017-01-01T08:10:36.673Z,5
2017-01-01T08:11:17.172Z,5
2017-01-01T08:11:57.642Z,5
2017-01-01T08:12:38.143Z,5
2017-01-01T08:13:18.607Z,5
2017-01-01T08:13:59.098Z,5
2017-01-01T08:14:39.573Z,5
2017-01-01T08:15:20.069Z,5
2017-01-01T08:16:00.565Z,5
2017-01-01T08:16:41.045Z,5
2017-01-01T08:17:21.512Z,5
2017-01-01T08:18:01.984Z,5
2017-01-01T08:18:42.469Z,10
2017-01-01T08:19:22.975Z,10
2017-01-01T08:20:03.475Z,10
2017-01-01T08:20:43.940Z,10
2017-01-01T08:21:24.426Z,10
2017-01-01T08:22:04.949Z,10
2017-01-01T08:22:45.443Z,10
2017-01-01T08:23:25.920Z,15
2017-01-01T08:24:06.414Z,15
2017-01-01T08:24:46.897Z,15
2017-01-01T08:25:27.402Z,15
2017-01-01T08:26:07.884Z,10
2017-01-01T08:26:48.355Z,10
2017-01-01T08:27:28.850Z,10
2017-01-01T08:28:09.343Z,10
2017-01-01T08:28:49.829Z,10
2017-01-01T08:29:30.325Z,10
2017-01-01T08:30:10.799Z,10
2017-01-01T08:30:51.279Z,15
2017-01-01T08:31:31.781Z,10
2017-01-01T08:32:12.262Z,15
2017-01-01T08:32:52.732Z,15
2017-01-01T08:33:33.217Z,10
2017-01-01T08:34:13.722Z,10
2017-01-01T08:34:54.224Z,10
2017-01-01T08:35:34.715Z,15
2017-01-01T08:36:15.202Z,15
2017-01-01T08:36:55.715Z,15
2017-01-01T08:37:36.195Z,15
2017-01-01T08:38:16.654Z,15
2017-01-01T08:38:57.128Z,15
2017-01-01T08:39:37.668Z,15
2017-01-01T08:40:18.136Z,15
2017-01-01T08:40:58.638Z,15
2017-01-01T08:41:39.142Z,15
2017-01-01T08:42:19.632Z,15
2017-01-01T08:43:00.117Z,15
2017-01-01T08:43:40.606Z,10
2017-01-01T08:44:21.102Z,15
2017-01-01T08:45:01.573Z,15
2017-01-01T08:45:42.055Z,20
2017-01-01T08:46:22.561Z,15
2017-01-01T08:47:03.030Z,20
2017-01-01T08:47:43.533Z,20
2017-01-01T08:48:23.972Z,25
2017-01-01T08:49:04.472Z,30
2017-01-01T08:49:44.949Z,30
2017-01-01T08:50:25.404Z,30
2017-01-01T08:51:05.892Z,25
2017-01-01T08:51:46.384Z,25
2017-01-01T08:52:26.870Z,30
2017-01-01T08:53:07.360Z,30
2017-01-01T08:53:47.843Z,30
2017-01-01T08:54:28.354Z,30
2017-01-01T08:55:08.817Z,30
2017-01-01T08:55:49.275Z,30
2017-01-01T08:56:29.758Z,25
2017-01-01T08:57:10.243Z,30
2017-01-01T08:57:50.725Z,35
2017-01-01T08:58:31.205Z,30
2017-01-01T08:59:11.670Z,35
2017-01-01T08:59:52.146Z,35
2017-01-01T09:00:32.626Z,35
2017-01-01T09:01:13.146Z,40
2017-01-01T09:01:53.634Z,50
2017-01-01T09:02:34.143Z,40
2017-01-01T09:03:14.619Z,35
2017-01-01T09:03:55.100Z,40
2017-01-01T09:04:35.583Z,45
2017-01-01T09:05:16.074Z,40
2017-01-01T09:05:56.557Z,45
2017-01-01T09:06:37.029Z,40
2017-01-01T09:07:17.524Z,50
2017-01-01T09:07:58.031Z,45
2017-01-01T09:08:38.513Z,35
2017-01-01T09:09:19.011Z,40
2017-01-01T09:09:59.482Z,35
2017-01-01T09:10:39.971Z,35
2017-01-01T09:11:20.468Z,35
2017-01-01T09:12:00.930Z,35
2017-01-01T09:12:41.419Z,35
2017-01-01T09:13:21.924Z,35
2017-01-01T09:14:02.363Z,40
2017-01-01T09:14:42.841Z,40
2017-01-01T09:15:23.330Z,35
2017-01-01T09:16:03.808Z,40
2017-01-01T09:16:44.277Z,35
2017-01-01T09:17:24.767Z,35
2017-01-01T09:18:05.266Z,30
2017-01-01T09:18:45.738Z,30
2017-01-01T09:19:26.236Z,30
2017-01-01T09:20:06.733Z,30
2017-01-01T09:20:47.194Z,35
2017-01-01T09:21:27.676Z,50
2017-01-01T09:22:08.140Z,45
2017-01-01T09:22:48.663Z,40
2017-01-01T09:23:29.157Z,40
2017-01-01T09:24:09.635Z,35
2017-01-01T09:24:50.085Z,35
2017-01-01T09:25:30.559Z,35
2017-01-01T09:26:11.033Z,35
2017-01-01T09:26:51.505Z,35
2017-01-01T09:27:31.994Z,30
2017-01-01T09:28:12.481Z,35
2017-01-01T09:28:52.960Z,35
2017-01-01T09:29:33.429Z,35
2017-01-01T09:30:13.914Z,35
2017-01-01T09:30:54.399Z,35
2017-01-01T09:31:34.907Z,30
2017-01-01T09:32:15.375Z,30
2017-01-01T09:32:55.867Z,30
2017-01-01T09:33:36.337Z,25
2017-01-01T09:34:16.839Z,30
2017-01-01T09:34:57.295Z,35
2017-01-01T09:35:37.759Z,30
2017-01-01T09:36:18.226Z,30
2017-01-01T09:36:58.705Z,30
2017-01-01T09:37:39.159Z,35
2017-01-01T09:38:19.636Z,30
2017-01-01T09:39:00.136Z,30
2017-01-01T09:39:40.630Z,30
2017-01-01T09:40:21.101Z,30
2017-01-01T09:41:01.578Z,35
2017-01-01T09:41:42.091Z,35
2017-01-01T09:42:22.634Z,35
2017-01-01T09:43:03.088Z,35
2017-01-01T09:43:43.574Z,40
2017-01-01T09:44:24.036Z,40
2017-01-01T09:45:04.520Z,35
2017-01-01T09:45:45.001Z,45
2017-01-01T09:46:25.454Z,35
2017-01-01T09:47:05.949Z,35
2017-01-01T09:47:46.433Z,40
2017-01-01T09:48:26.922Z,35
2017-01-01T09:49:07.383Z,40
2017-01-01T09:49:47.897Z,35
2017-01-01T09:52:26.441Z,40
2017-01-01T09:53:06.886Z,35
2017-01-01T09:53:47.382Z,35
2017-01-01T09:54:27.890Z,40
2017-01-01T09:55:08.351Z,40
2017-01-01T09:55:48.810Z,50
2017-01-01T09:56:29.276Z,45
2017-01-01T09:57:09.758Z,40
2017-01-01T09:57:50.238Z,45
2017-01-01T09:58:30.719Z,35
2017-01-01T09:59:11.231Z,30
2017-01-01T09:59:51.720Z,30
2017-01-01T10:00:32.198Z,35